sensor_id;sensor_type;location;lat;lon;timestamp;P1;durP1;ratioP1;P2;durP2;ratioP2
64688;SDS011;62504;46.070;14.492;2023-02-28T00:01:06;11.50;;;6.20;;
64688;SDS011;62504;46.070;14.492;2023-02-28T00:03:32;13.07;;;5.97;;
64688;SDS011;62504;46.070;14.492;2023-02-28T00:06:00;12.37;;;6.17;;
64688;SDS011;62504;46.070;14.492;2023-02-28T00:08:27;11.60;;;5.77;;
64688;SDS011;62504;46.070;14.492;2023-02-28T00:10:53;10.10;;;6.00;;
64688;SDS011;62504;46.070;14.492;2023-02-28T00:13:18;11.10;;;5.77;;
64688;SDS011;62504;46.070;14.492;2023-02-28T00:15:44;10.67;;;5.63;;
64688;SDS011;62504;46.070;14.492;2023-02-28T00:18:10;9.83;;;5.37;;
64688;SDS011;62504;46.070;14.492;2023-02-28T00:20:36;9.90;;;5.43;;
64688;SDS011;62504;46.070;14.492;2023-02-28T00:23:02;12.60;;;5.93;;
64688;SDS011;62504;46.070;14.492;2023-02-28T00:25:28;9.53;;;5.40;;
64688;SDS011;62504;46.070;14.492;2023-02-28T00:27:54;10.23;;;5.50;;
64688;SDS011;62504;46.070;14.492;2023-02-28T00:30:22;9.20;;;5.40;;
64688;SDS011;62504;46.070;14.492;2023-02-28T00:32:49;10.83;;;5.57;;
64688;SDS011;62504;46.070;14.492;2023-02-28T00:35:16;9.33;;;5.20;;
64688;SDS011;62504;46.070;14.492;2023-02-28T00:37:42;12.50;;;5.60;;
64688;SDS011;62504;46.070;14.492;2023-02-28T00:40:08;10.07;;;5.50;;
64688;SDS011;62504;46.070;14.492;2023-02-28T00:42:36;10.10;;;5.67;;
64688;SDS011;62504;46.070;14.492;2023-02-28T00:45:02;11.50;;;5.67;;
64688;SDS011;62504;46.070;14.492;2023-02-28T00:47:29;12.17;;;5.60;;
64688;SDS011;62504;46.070;14.492;2023-02-28T00:49:55;10.73;;;5.57;;
64688;SDS011;62504;46.070;14.492;2023-02-28T00:52:21;10.73;;;5.70;;
64688;SDS011;62504;46.070;14.492;2023-02-28T00:54:47;10.93;;;5.97;;
64688;SDS011;62504;46.070;14.492;2023-02-28T00:57:12;11.20;;;5.00;;
64688;SDS011;62504;46.070;14.492;2023-02-28T00:59:38;13.33;;;5.07;;
64688;SDS011;62504;46.070;14.492;2023-02-28T01:02:03;11.73;;;5.60;;
64688;SDS011;62504;46.070;14.492;2023-02-28T01:04:29;11.53;;;5.47;;
64688;SDS011;62504;46.070;14.492;2023-02-28T01:06:55;10.43;;;5.47;;
64688;SDS011;62504;46.070;14.492;2023-02-28T01:09:20;10.93;;;5.70;;
64688;SDS011;62504;46.070;14.492;2023-02-28T01:11:46;10.97;;;5.43;;
64688;SDS011;62504;46.070;14.492;2023-02-28T01:14:13;9.97;;;5.10;;
64688;SDS011;62504;46.070;14.492;2023-02-28T01:16:39;10.73;;;5.20;;
64688;SDS011;62504;46.070;14.492;2023-02-28T01:19:05;10.87;;;5.70;;
64688;SDS011;62504;46.070;14.492;2023-02-28T01:21:31;10.07;;;5.50;;
64688;SDS011;62504;46.070;14.492;2023-02-28T01:23:57;12.53;;;5.73;;
64688;SDS011;62504;46.070;14.492;2023-02-28T01:26:23;9.53;;;5.27;;
64688;SDS011;62504;46.070;14.492;2023-02-28T01:28:50;10.30;;;5.47;;
64688;SDS011;62504;46.070;14.492;2023-02-28T01:31:17;9.03;;;5.27;;
64688;SDS011;62504;46.070;14.492;2023-02-28T01:33:43;11.87;;;5.47;;
64688;SDS011;62504;46.070;14.492;2023-02-28T01:36:11;10.83;;;5.27;;
64688;SDS011;62504;46.070;14.492;2023-02-28T01:38:48;11.07;;;5.50;;
64688;SDS011;62504;46.070;14.492;2023-02-28T01:41:19;13.27;;;6.43;;
64688;SDS011;62504;46.070;14.492;2023-02-28T01:46:12;12.10;;;6.07;;
64688;SDS011;62504;46.070;14.492;2023-02-28T01:48:45;12.00;;;5.93;;
64688;SDS011;62504;46.070;14.492;2023-02-28T01:51:24;12.50;;;5.33;;
64688;SDS011;62504;46.070;14.492;2023-02-28T01:54:04;13.77;;;6.13;;
64688;SDS011;62504;46.070;14.492;2023-02-28T01:56:38;11.70;;;5.57;;
64688;SDS011;62504;46.070;14.492;2023-02-28T01:59:11;11.63;;;5.30;;
64688;SDS011;62504;46.070;14.492;2023-02-28T02:01:39;10.80;;;5.87;;
64688;SDS011;62504;46.070;14.492;2023-02-28T02:04:05;8.60;;;5.27;;
64688;SDS011;62504;46.070;14.492;2023-02-28T02:06:36;11.53;;;6.30;;
64688;SDS011;62504;46.070;14.492;2023-02-28T02:09:04;11.53;;;5.53;;
64688;SDS011;62504;46.070;14.492;2023-02-28T02:11:31;13.70;;;6.40;;
64688;SDS011;62504;46.070;14.492;2023-02-28T02:17:56;12.30;;;6.00;;
64688;SDS011;62504;46.070;14.492;2023-02-28T02:20:08;12.50;;;6.00;;
64688;SDS011;62504;46.070;14.492;2023-02-28T02:42:16;12.27;;;6.20;;
64688;SDS011;62504;46.070;14.492;2023-02-28T02:48:02;10.90;;;5.93;;
64688;SDS011;62504;46.070;14.492;2023-02-28T02:50:33;10.10;;;5.90;;
64688;SDS011;62504;46.070;14.492;2023-02-28T02:53:03;11.73;;;5.77;;
64688;SDS011;62504;46.070;14.492;2023-02-28T02:55:32;14.57;;;5.47;;
64688;SDS011;62504;46.070;14.492;2023-02-28T02:58:03;14.07;;;5.77;;
64688;SDS011;62504;46.070;14.492;2023-02-28T03:00:34;10.73;;;5.27;;
64688;SDS011;62504;46.070;14.492;2023-02-28T03:03:04;13.87;;;5.60;;
64688;SDS011;62504;46.070;14.492;2023-02-28T03:05:34;10.10;;;5.13;;
64688;SDS011;62504;46.070;14.492;2023-02-28T03:08:06;13.33;;;6.00;;
64688;SDS011;62504;46.070;14.492;2023-02-28T03:10:37;11.83;;;6.00;;
64688;SDS011;62504;46.070;14.492;2023-02-28T03:13:10;11.03;;;5.60;;
64688;SDS011;62504;46.070;14.492;2023-02-28T03:16:05;10.37;;;5.80;;
64688;SDS011;62504;46.070;14.492;2023-02-28T03:21:18;10.63;;;5.43;;
64688;SDS011;62504;46.070;14.492;2023-02-28T03:23:57;9.63;;;5.77;;
64688;SDS011;62504;46.070;14.492;2023-02-28T03:26:50;12.73;;;6.33;;
64688;SDS011;62504;46.070;14.492;2023-02-28T03:29:22;12.40;;;5.60;;
64688;SDS011;62504;46.070;14.492;2023-02-28T03:32:03;14.53;;;6.30;;
64688;SDS011;62504;46.070;14.492;2023-02-28T03:34:41;16.60;;;6.40;;
64688;SDS011;62504;46.070;14.492;2023-02-28T03:37:13;12.07;;;5.87;;
64688;SDS011;62504;46.070;14.492;2023-02-28T03:39:55;12.37;;;6.07;;
64688;SDS011;62504;46.070;14.492;2023-02-28T03:42:31;9.90;;;5.77;;
64688;SDS011;62504;46.070;14.492;2023-02-28T03:53:16;13.83;;;6.30;;
64688;SDS011;62504;46.070;14.492;2023-02-28T03:56:16;10.30;;;5.53;;
64688;SDS011;62504;46.070;14.492;2023-02-28T03:58:49;11.67;;;6.23;;
64688;SDS011;62504;46.070;14.492;2023-02-28T04:02:02;11.63;;;6.20;;
64688;SDS011;62504;46.070;14.492;2023-02-28T04:04:11;9.53;;;5.37;;
64688;SDS011;62504;46.070;14.492;2023-02-28T04:06:38;12.00;;;5.97;;
64688;SDS011;62504;46.070;14.492;2023-02-28T04:09:04;13.83;;;6.10;;
64688;SDS011;62504;46.070;14.492;2023-02-28T04:14:07;9.17;;;5.73;;
64688;SDS011;62504;46.070;14.492;2023-02-28T04:16:35;13.00;;;5.63;;
64688;SDS011;62504;46.070;14.492;2023-02-28T04:19:03;13.60;;;6.27;;
64688;SDS011;62504;46.070;14.492;2023-02-28T04:21:37;11.70;;;6.03;;
64688;SDS011;62504;46.070;14.492;2023-02-28T04:24:04;10.30;;;5.97;;
64688;SDS011;62504;46.070;14.492;2023-02-28T04:26:35;12.13;;;6.30;;
64688;SDS011;62504;46.070;14.492;2023-02-28T04:29:02;11.63;;;6.13;;
64688;SDS011;62504;46.070;14.492;2023-02-28T04:31:29;11.47;;;6.20;;
64688;SDS011;62504;46.070;14.492;2023-02-28T04:33:55;12.17;;;5.97;;
64688;SDS011;62504;46.070;14.492;2023-02-28T04:36:21;14.30;;;6.17;;
64688;SDS011;62504;46.070;14.492;2023-02-28T04:38:48;10.63;;;5.53;;
64688;SDS011;62504;46.070;14.492;2023-02-28T04:41:15;12.53;;;5.80;;
64688;SDS011;62504;46.070;14.492;2023-02-28T04:43:41;13.83;;;5.40;;
64688;SDS011;62504;46.070;14.492;2023-02-28T04:46:07;10.53;;;5.47;;
64688;SDS011;62504;46.070;14.492;2023-02-28T04:48:35;10.87;;;5.50;;
64688;SDS011;62504;46.070;14.492;2023-02-28T04:51:06;11.33;;;5.20;;
64688;SDS011;62504;46.070;14.492;2023-02-28T04:53:34;11.83;;;5.70;;
64688;SDS011;62504;46.070;14.492;2023-02-28T04:56:01;12.07;;;5.97;;
64688;SDS011;62504;46.070;14.492;2023-02-28T04:58:27;11.47;;;5.93;;
64688;SDS011;62504;46.070;14.492;2023-02-28T05:00:53;14.40;;;6.27;;
64688;SDS011;62504;46.070;14.492;2023-02-28T05:03:19;12.37;;;6.33;;
64688;SDS011;62504;46.070;14.492;2023-02-28T05:05:47;10.90;;;6.00;;
64688;SDS011;62504;46.070;14.492;2023-02-28T05:08:13;12.27;;;5.80;;
64688;SDS011;62504;46.070;14.492;2023-02-28T05:10:38;11.83;;;6.00;;
64688;SDS011;62504;46.070;14.492;2023-02-28T05:13:04;12.87;;;5.77;;
64688;SDS011;62504;46.070;14.492;2023-02-28T05:15:30;16.07;;;6.20;;
64688;SDS011;62504;46.070;14.492;2023-02-28T05:17:55;11.70;;;6.23;;
64688;SDS011;62504;46.070;14.492;2023-02-28T05:20:21;15.60;;;6.00;;
64688;SDS011;62504;46.070;14.492;2023-02-28T05:22:47;14.43;;;6.60;;
64688;SDS011;62504;46.070;14.492;2023-02-28T05:25:13;13.43;;;6.70;;
64688;SDS011;62504;46.070;14.492;2023-02-28T05:27:42;11.93;;;6.43;;
64688;SDS011;62504;46.070;14.492;2023-02-28T05:30:08;14.87;;;6.40;;
64688;SDS011;62504;46.070;14.492;2023-02-28T05:32:38;19.37;;;8.17;;
64688;SDS011;62504;46.070;14.492;2023-02-28T05:35:07;15.17;;;6.43;;
64688;SDS011;62504;46.070;14.492;2023-02-28T05:37:34;16.03;;;6.73;;
64688;SDS011;62504;46.070;14.492;2023-02-28T05:39:59;12.50;;;6.30;;
64688;SDS011;62504;46.070;14.492;2023-02-28T05:42:25;15.87;;;6.47;;
64688;SDS011;62504;46.070;14.492;2023-02-28T05:44:51;15.33;;;7.23;;
64688;SDS011;62504;46.070;14.492;2023-02-28T05:47:16;12.20;;;6.57;;
64688;SDS011;62504;46.070;14.492;2023-02-28T05:49:42;14.80;;;6.47;;
64688;SDS011;62504;46.070;14.492;2023-02-28T05:52:08;11.53;;;5.80;;
64688;SDS011;62504;46.070;14.492;2023-02-28T05:54:34;13.60;;;6.13;;
64688;SDS011;62504;46.070;14.492;2023-02-28T05:56:59;13.23;;;6.30;;
64688;SDS011;62504;46.070;14.492;2023-02-28T05:59:25;12.53;;;6.10;;
64688;SDS011;62504;46.070;14.492;2023-02-28T06:01:51;14.33;;;6.70;;
64688;SDS011;62504;46.070;14.492;2023-02-28T06:04:18;13.13;;;6.33;;
64688;SDS011;62504;46.070;14.492;2023-02-28T06:06:46;13.23;;;6.20;;
64688;SDS011;62504;46.070;14.492;2023-02-28T06:09:12;19.07;;;6.60;;
64688;SDS011;62504;46.070;14.492;2023-02-28T06:11:38;12.17;;;6.63;;
64688;SDS011;62504;46.070;14.492;2023-02-28T06:14:05;13.40;;;6.70;;
64688;SDS011;62504;46.070;14.492;2023-02-28T06:16:32;18.17;;;7.63;;
64688;SDS011;62504;46.070;14.492;2023-02-28T06:18:58;14.23;;;6.60;;
64688;SDS011;62504;46.070;14.492;2023-02-28T06:21:25;15.80;;;6.50;;
64688;SDS011;62504;46.070;14.492;2023-02-28T06:23:52;13.90;;;6.70;;
64688;SDS011;62504;46.070;14.492;2023-02-28T06:26:18;15.97;;;7.07;;
64688;SDS011;62504;46.070;14.492;2023-02-28T06:28:44;13.67;;;6.80;;
64688;SDS011;62504;46.070;14.492;2023-02-28T06:31:11;17.30;;;7.43;;
64688;SDS011;62504;46.070;14.492;2023-02-28T06:33:39;16.40;;;7.17;;
64688;SDS011;62504;46.070;14.492;2023-02-28T06:36:06;12.60;;;6.70;;
64688;SDS011;62504;46.070;14.492;2023-02-28T06:38:32;16.93;;;7.37;;
64688;SDS011;62504;46.070;14.492;2023-02-28T06:40:59;13.67;;;6.80;;
64688;SDS011;62504;46.070;14.492;2023-02-28T06:43:27;14.77;;;7.23;;
64688;SDS011;62504;46.070;14.492;2023-02-28T06:45:54;16.17;;;7.77;;
64688;SDS011;62504;46.070;14.492;2023-02-28T06:48:21;18.30;;;7.13;;
64688;SDS011;62504;46.070;14.492;2023-02-28T06:50:47;14.83;;;7.30;;
64688;SDS011;62504;46.070;14.492;2023-02-28T06:53:13;14.87;;;7.27;;
64688;SDS011;62504;46.070;14.492;2023-02-28T06:55:39;18.13;;;7.47;;
64688;SDS011;62504;46.070;14.492;2023-02-28T06:58:05;15.37;;;7.20;;
64688;SDS011;62504;46.070;14.492;2023-02-28T07:00:43;16.97;;;7.67;;
64688;SDS011;62504;46.070;14.492;2023-02-28T07:03:10;15.93;;;7.27;;
64688;SDS011;62504;46.070;14.492;2023-02-28T07:05:37;15.33;;;7.70;;
64688;SDS011;62504;46.070;14.492;2023-02-28T07:08:04;16.10;;;7.27;;
64688;SDS011;62504;46.070;14.492;2023-02-28T07:10:31;16.40;;;6.47;;
64688;SDS011;62504;46.070;14.492;2023-02-28T07:12:58;15.63;;;7.70;;
64688;SDS011;62504;46.070;14.492;2023-02-28T07:15:24;20.10;;;7.97;;
64688;SDS011;62504;46.070;14.492;2023-02-28T07:17:50;18.17;;;7.93;;
64688;SDS011;62504;46.070;14.492;2023-02-28T07:20:16;16.50;;;7.47;;
64688;SDS011;62504;46.070;14.492;2023-02-28T07:22:42;18.07;;;7.57;;
64688;SDS011;62504;46.070;14.492;2023-02-28T07:25:08;19.50;;;7.70;;
64688;SDS011;62504;46.070;14.492;2023-02-28T07:27:34;16.10;;;7.43;;
64688;SDS011;62504;46.070;14.492;2023-02-28T07:30:00;17.13;;;8.00;;
64688;SDS011;62504;46.070;14.492;2023-02-28T07:32:26;20.33;;;8.60;;
64688;SDS011;62504;46.070;14.492;2023-02-28T07:34:53;15.80;;;8.00;;
64688;SDS011;62504;46.070;14.492;2023-02-28T07:37:19;16.57;;;8.00;;
64688;SDS011;62504;46.070;14.492;2023-02-28T07:39:45;20.87;;;8.30;;
64688;SDS011;62504;46.070;14.492;2023-02-28T07:42:10;19.07;;;8.20;;
64688;SDS011;62504;46.070;14.492;2023-02-28T07:44:37;18.93;;;8.57;;
64688;SDS011;62504;46.070;14.492;2023-02-28T07:47:10;18.70;;;7.80;;
64688;SDS011;62504;46.070;14.492;2023-02-28T07:49:36;16.33;;;7.37;;
64688;SDS011;62504;46.070;14.492;2023-02-28T07:52:02;21.23;;;8.47;;
64688;SDS011;62504;46.070;14.492;2023-02-28T07:54:29;20.80;;;8.70;;
64688;SDS011;62504;46.070;14.492;2023-02-28T07:56:55;19.57;;;8.00;;
64688;SDS011;62504;46.070;14.492;2023-02-28T07:59:20;15.53;;;7.80;;
64688;SDS011;62504;46.070;14.492;2023-02-28T08:01:46;17.33;;;7.83;;
64688;SDS011;62504;46.070;14.492;2023-02-28T08:04:14;18.20;;;7.80;;
64688;SDS011;62504;46.070;14.492;2023-02-28T08:06:40;19.80;;;8.33;;
64688;SDS011;62504;46.070;14.492;2023-02-28T08:09:05;18.63;;;7.87;;
64688;SDS011;62504;46.070;14.492;2023-02-28T08:11:31;20.93;;;8.67;;
64688;SDS011;62504;46.070;14.492;2023-02-28T08:13:57;18.20;;;7.90;;
64688;SDS011;62504;46.070;14.492;2023-02-28T08:16:22;17.00;;;8.00;;
64688;SDS011;62504;46.070;14.492;2023-02-28T08:18:49;18.60;;;8.03;;
64688;SDS011;62504;46.070;14.492;2023-02-28T08:21:15;17.80;;;8.20;;
64688;SDS011;62504;46.070;14.492;2023-02-28T08:23:41;15.40;;;7.57;;
64688;SDS011;62504;46.070;14.492;2023-02-28T08:26:07;19.63;;;8.57;;
64688;SDS011;62504;46.070;14.492;2023-02-28T08:28:33;17.90;;;8.13;;
64688;SDS011;62504;46.070;14.492;2023-02-28T08:30:59;16.03;;;7.80;;
64688;SDS011;62504;46.070;14.492;2023-02-28T08:33:25;17.47;;;8.17;;
64688;SDS011;62504;46.070;14.492;2023-02-28T08:35:53;17.50;;;8.40;;
64688;SDS011;62504;46.070;14.492;2023-02-28T08:38:19;20.23;;;8.57;;
64688;SDS011;62504;46.070;14.492;2023-02-28T08:40:45;18.43;;;8.57;;
64688;SDS011;62504;46.070;14.492;2023-02-28T08:43:10;17.97;;;9.10;;
64688;SDS011;62504;46.070;14.492;2023-02-28T08:45:36;18.20;;;7.57;;
64688;SDS011;62504;46.070;14.492;2023-02-28T08:48:02;20.70;;;8.57;;
64688;SDS011;62504;46.070;14.492;2023-02-28T08:50:28;18.97;;;8.77;;
64688;SDS011;62504;46.070;14.492;2023-02-28T08:52:54;17.90;;;8.60;;
64688;SDS011;62504;46.070;14.492;2023-02-28T08:55:19;17.63;;;8.93;;
64688;SDS011;62504;46.070;14.492;2023-02-28T08:57:45;13.60;;;7.13;;
64688;SDS011;62504;46.070;14.492;2023-02-28T09:00:11;18.73;;;7.90;;
64688;SDS011;62504;46.070;14.492;2023-02-28T09:02:38;16.07;;;7.70;;
64688;SDS011;62504;46.070;14.492;2023-02-28T09:05:05;18.43;;;7.70;;
64688;SDS011;62504;46.070;14.492;2023-02-28T09:07:31;17.73;;;8.03;;
64688;SDS011;62504;46.070;14.492;2023-02-28T09:09:57;16.87;;;8.37;;
64688;SDS011;62504;46.070;14.492;2023-02-28T09:12:23;22.47;;;9.03;;
64688;SDS011;62504;46.070;14.492;2023-02-28T09:14:50;18.50;;;7.83;;
64688;SDS011;62504;46.070;14.492;2023-02-28T09:17:16;18.77;;;8.70;;
64688;SDS011;62504;46.070;14.492;2023-02-28T09:19:42;20.83;;;8.23;;
64688;SDS011;62504;46.070;14.492;2023-02-28T09:22:09;18.57;;;8.57;;
64688;SDS011;62504;46.070;14.492;2023-02-28T09:24:36;17.07;;;8.30;;
64688;SDS011;62504;46.070;14.492;2023-02-28T09:27:02;19.33;;;9.70;;
64688;SDS011;62504;46.070;14.492;2023-02-28T09:29:28;19.00;;;8.20;;
64688;SDS011;62504;46.070;14.492;2023-02-28T09:31:54;18.30;;;8.80;;
64688;SDS011;62504;46.070;14.492;2023-02-28T09:34:21;17.07;;;7.00;;
64688;SDS011;62504;46.070;14.492;2023-02-28T09:36:46;24.10;;;10.23;;
64688;SDS011;62504;46.070;14.492;2023-02-28T09:39:12;96.10;;;30.10;;
64688;SDS011;62504;46.070;14.492;2023-02-28T09:41:43;33.37;;;16.57;;
64688;SDS011;62504;46.070;14.492;2023-02-28T09:44:57;15.43;;;6.60;;
64688;SDS011;62504;46.070;14.492;2023-02-28T09:47:18;19.20;;;8.17;;
64688;SDS011;62504;46.070;14.492;2023-02-28T09:49:49;15.80;;;7.60;;
64688;SDS011;62504;46.070;14.492;2023-02-28T09:52:20;15.77;;;7.17;;
64688;SDS011;62504;46.070;14.492;2023-02-28T09:54:53;18.33;;;7.20;;
64688;SDS011;62504;46.070;14.492;2023-02-28T09:57:33;16.43;;;7.43;;
64688;SDS011;62504;46.070;14.492;2023-02-28T10:08:18;16.37;;;7.30;;
64688;SDS011;62504;46.070;14.492;2023-02-28T10:10:51;14.97;;;6.97;;
64688;SDS011;62504;46.070;14.492;2023-02-28T10:15:51;18.97;;;7.70;;
64688;SDS011;62504;46.070;14.492;2023-02-28T10:18:25;16.80;;;7.20;;
64688;SDS011;62504;46.070;14.492;2023-02-28T10:21:05;15.70;;;7.23;;
64688;SDS011;62504;46.070;14.492;2023-02-28T10:23:32;15.70;;;6.90;;
64688;SDS011;62504;46.070;14.492;2023-02-28T10:26:08;18.37;;;7.77;;
64688;SDS011;62504;46.070;14.492;2023-02-28T10:28:41;16.00;;;7.77;;
64688;SDS011;62504;46.070;14.492;2023-02-28T10:31:08;19.10;;;8.30;;
64688;SDS011;62504;46.070;14.492;2023-02-28T10:33:43;18.93;;;8.13;;
64688;SDS011;62504;46.070;14.492;2023-02-28T10:36:12;21.53;;;8.77;;
64688;SDS011;62504;46.070;14.492;2023-02-28T10:38:44;18.27;;;8.10;;
64688;SDS011;62504;46.070;14.492;2023-02-28T10:43:42;19.93;;;8.70;;
64688;SDS011;62504;46.070;14.492;2023-02-28T10:51:02;20.80;;;9.07;;
64688;SDS011;62504;46.070;14.492;2023-02-28T10:58:47;17.43;;;8.97;;
64688;SDS011;62504;46.070;14.492;2023-02-28T11:01:21;19.23;;;8.60;;
64688;SDS011;62504;46.070;14.492;2023-02-28T11:07:01;18.73;;;8.73;;
64688;SDS011;62504;46.070;14.492;2023-02-28T11:09:35;19.43;;;8.63;;
64688;SDS011;62504;46.070;14.492;2023-02-28T11:12:06;20.13;;;8.80;;
64688;SDS011;62504;46.070;14.492;2023-02-28T11:14:39;20.00;;;9.17;;
64688;SDS011;62504;46.070;14.492;2023-02-28T11:17:22;18.07;;;7.97;;
64688;SDS011;62504;46.070;14.492;2023-02-28T11:19:51;20.43;;;8.63;;
64688;SDS011;62504;46.070;14.492;2023-02-28T11:22:24;21.93;;;9.30;;
64688;SDS011;62504;46.070;14.492;2023-02-28T11:24:57;18.63;;;8.70;;
64688;SDS011;62504;46.070;14.492;2023-02-28T11:29:58;18.10;;;9.00;;
64688;SDS011;62504;46.070;14.492;2023-02-28T11:32:25;21.60;;;9.30;;
64688;SDS011;62504;46.070;14.492;2023-02-28T11:37:36;23.50;;;9.70;;
64688;SDS011;62504;46.070;14.492;2023-02-28T11:40:13;19.97;;;8.87;;
64688;SDS011;62504;46.070;14.492;2023-02-28T11:42:52;18.50;;;9.07;;
64688;SDS011;62504;46.070;14.492;2023-02-28T11:56:37;21.07;;;9.73;;
64688;SDS011;62504;46.070;14.492;2023-02-28T11:59:27;22.77;;;9.50;;
64688;SDS011;62504;46.070;14.492;2023-02-28T12:02:50;20.70;;;9.43;;
64688;SDS011;62504;46.070;14.492;2023-02-28T12:07:47;21.33;;;9.63;;
64688;SDS011;62504;46.070;14.492;2023-02-28T12:13:08;24.00;;;10.80;;
64688;SDS011;62504;46.070;14.492;2023-02-28T12:27:10;18.83;;;8.47;;
64688;SDS011;62504;46.070;14.492;2023-02-28T12:29:58;22.83;;;10.20;;
64688;SDS011;62504;46.070;14.492;2023-02-28T12:35:03;19.23;;;8.73;;
64688;SDS011;62504;46.070;14.492;2023-02-28T12:37:54;22.07;;;9.57;;
64688;SDS011;62504;46.070;14.492;2023-02-28T12:40:26;19.57;;;9.57;;
64688;SDS011;62504;46.070;14.492;2023-02-28T12:43:07;17.70;;;9.33;;
64688;SDS011;62504;46.070;14.492;2023-02-28T12:45:51;18.23;;;9.27;;
64688;SDS011;62504;46.070;14.492;2023-02-28T12:48:40;19.63;;;8.07;;
64688;SDS011;62504;46.070;14.492;2023-02-28T12:51:11;20.50;;;8.83;;
64688;SDS011;62504;46.070;14.492;2023-02-28T12:56:43;19.03;;;9.17;;
64688;SDS011;62504;46.070;14.492;2023-02-28T13:01:43;23.63;;;9.77;;
64688;SDS011;62504;46.070;14.492;2023-02-28T13:09:11;19.33;;;9.40;;
64688;SDS011;62504;46.070;14.492;2023-02-28T13:11:49;21.47;;;9.40;;
64688;SDS011;62504;46.070;14.492;2023-02-28T13:14:26;19.87;;;8.87;;
64688;SDS011;62504;46.070;14.492;2023-02-28T13:19:46;16.40;;;8.57;;
64688;SDS011;62504;46.070;14.492;2023-02-28T13:22:41;16.67;;;8.40;;
64688;SDS011;62504;46.070;14.492;2023-02-28T13:28:00;17.40;;;8.47;;
64688;SDS011;62504;46.070;14.492;2023-02-28T13:33:28;20.10;;;8.83;;
64688;SDS011;62504;46.070;14.492;2023-02-28T13:38:42;18.73;;;9.40;;
64688;SDS011;62504;46.070;14.492;2023-02-28T13:46:30;19.57;;;9.57;;
64688;SDS011;62504;46.070;14.492;2023-02-28T13:51:48;18.47;;;9.10;;
64688;SDS011;62504;46.070;14.492;2023-02-28T13:56:45;18.03;;;9.27;;
64688;SDS011;62504;46.070;14.492;2023-02-28T14:02:03;16.50;;;9.00;;
64688;SDS011;62504;46.070;14.492;2023-02-28T14:05:04;21.63;;;10.27;;
64688;SDS011;62504;46.070;14.492;2023-02-28T14:07:45;19.87;;;10.20;;
64688;SDS011;62504;46.070;14.492;2023-02-28T14:10:22;21.07;;;10.60;;
64688;SDS011;62504;46.070;14.492;2023-02-28T14:15:59;20.93;;;10.53;;
64688;SDS011;62504;46.070;14.492;2023-02-28T14:18:36;20.40;;;10.00;;
64688;SDS011;62504;46.070;14.492;2023-02-28T14:21:14;19.67;;;9.80;;
64688;SDS011;62504;46.070;14.492;2023-02-28T14:29:42;21.57;;;10.20;;
64688;SDS011;62504;46.070;14.492;2023-02-28T14:34:54;22.73;;;9.80;;
64688;SDS011;62504;46.070;14.492;2023-02-28T14:37:36;23.83;;;10.73;;
64688;SDS011;62504;46.070;14.492;2023-02-28T14:40:04;52.77;;;19.87;;
64688;SDS011;62504;46.070;14.492;2023-02-28T14:42:37;23.43;;;10.77;;
64688;SDS011;62504;46.070;14.492;2023-02-28T14:45:17;112.33;;;40.60;;
64688;SDS011;62504;46.070;14.492;2023-02-28T14:47:46;62.17;;;25.87;;
64688;SDS011;62504;46.070;14.492;2023-02-28T14:50:18;22.23;;;10.43;;
64688;SDS011;62504;46.070;14.492;2023-02-28T14:52:46;19.57;;;9.60;;
64688;SDS011;62504;46.070;14.492;2023-02-28T14:55:17;19.07;;;10.23;;
64688;SDS011;62504;46.070;14.492;2023-02-28T14:57:52;19.87;;;9.80;;
64688;SDS011;62504;46.070;14.492;2023-02-28T15:02:52;20.70;;;10.10;;
64688;SDS011;62504;46.070;14.492;2023-02-28T15:07:48;20.57;;;9.83;;
64688;SDS011;62504;46.070;14.492;2023-02-28T15:10:26;27.17;;;11.97;;
64688;SDS011;62504;46.070;14.492;2023-02-28T15:15:18;27.33;;;11.40;;
64688;SDS011;62504;46.070;14.492;2023-02-28T15:17:46;22.10;;;10.57;;
64688;SDS011;62504;46.070;14.492;2023-02-28T15:20:15;26.57;;;11.17;;
64688;SDS011;62504;46.070;14.492;2023-02-28T15:22:43;19.90;;;10.60;;
64688;SDS011;62504;46.070;14.492;2023-02-28T15:25:12;21.20;;;9.97;;
64688;SDS011;62504;46.070;14.492;2023-02-28T15:27:50;19.87;;;9.90;;
64688;SDS011;62504;46.070;14.492;2023-02-28T15:30:30;22.87;;;11.10;;
64688;SDS011;62504;46.070;14.492;2023-02-28T15:35:43;22.10;;;10.33;;
64688;SDS011;62504;46.070;14.492;2023-02-28T15:38:22;21.63;;;10.60;;
64688;SDS011;62504;46.070;14.492;2023-02-28T15:40:55;24.13;;;10.83;;
64688;SDS011;62504;46.070;14.492;2023-02-28T15:46:02;23.67;;;10.93;;
64688;SDS011;62504;46.070;14.492;2023-02-28T15:48:32;20.43;;;10.30;;
64688;SDS011;62504;46.070;14.492;2023-02-28T15:53:30;19.93;;;10.43;;
64688;SDS011;62504;46.070;14.492;2023-02-28T15:56:02;26.20;;;10.70;;
64688;SDS011;62504;46.070;14.492;2023-02-28T15:58:29;23.10;;;10.97;;
64688;SDS011;62504;46.070;14.492;2023-02-28T16:01:30;23.60;;;10.87;;
64688;SDS011;62504;46.070;14.492;2023-02-28T16:04:01;25.50;;;10.63;;
64688;SDS011;62504;46.070;14.492;2023-02-28T16:09:14;21.73;;;10.10;;
64688;SDS011;62504;46.070;14.492;2023-02-28T16:11:42;21.80;;;10.77;;
64688;SDS011;62504;46.070;14.492;2023-02-28T16:14:17;22.13;;;10.63;;
64688;SDS011;62504;46.070;14.492;2023-02-28T16:16:49;24.53;;;10.57;;
64688;SDS011;62504;46.070;14.492;2023-02-28T16:19:16;26.43;;;10.70;;
64688;SDS011;62504;46.070;14.492;2023-02-28T16:21:43;24.63;;;10.70;;
64688;SDS011;62504;46.070;14.492;2023-02-28T16:24:09;21.37;;;9.97;;
64688;SDS011;62504;46.070;14.492;2023-02-28T16:26:35;20.87;;;10.57;;
64688;SDS011;62504;46.070;14.492;2023-02-28T16:29:04;21.77;;;10.20;;
64688;SDS011;62504;46.070;14.492;2023-02-28T16:31:32;21.27;;;10.40;;
64688;SDS011;62504;46.070;14.492;2023-02-28T16:34:01;23.87;;;10.60;;
64688;SDS011;62504;46.070;14.492;2023-02-28T16:36:28;22.30;;;10.33;;
64688;SDS011;62504;46.070;14.492;2023-02-28T16:38:55;22.47;;;11.17;;
64688;SDS011;62504;46.070;14.492;2023-02-28T16:41:22;23.83;;;10.80;;
64688;SDS011;62504;46.070;14.492;2023-02-28T16:43:51;27.07;;;11.17;;
64688;SDS011;62504;46.070;14.492;2023-02-28T16:46:19;22.27;;;11.00;;
64688;SDS011;62504;46.070;14.492;2023-02-28T16:48:45;24.27;;;11.07;;
64688;SDS011;62504;46.070;14.492;2023-02-28T16:51:16;25.00;;;11.53;;
64688;SDS011;62504;46.070;14.492;2023-02-28T16:53:43;25.43;;;12.30;;
64688;SDS011;62504;46.070;14.492;2023-02-28T16:56:13;25.53;;;10.97;;
64688;SDS011;62504;46.070;14.492;2023-02-28T16:58:41;24.10;;;11.97;;
64688;SDS011;62504;46.070;14.492;2023-02-28T17:01:07;24.43;;;12.00;;
64688;SDS011;62504;46.070;14.492;2023-02-28T17:03:32;29.33;;;12.67;;
64688;SDS011;62504;46.070;14.492;2023-02-28T17:05:58;29.63;;;13.47;;
64688;SDS011;62504;46.070;14.492;2023-02-28T17:08:24;23.63;;;10.83;;
64688;SDS011;62504;46.070;14.492;2023-02-28T17:10:50;26.53;;;11.83;;
64688;SDS011;62504;46.070;14.492;2023-02-28T17:13:16;29.53;;;14.03;;
64688;SDS011;62504;46.070;14.492;2023-02-28T17:15:41;30.07;;;13.43;;
64688;SDS011;62504;46.070;14.492;2023-02-28T17:18:15;23.33;;;11.57;;
64688;SDS011;62504;46.070;14.492;2023-02-28T17:20:44;32.33;;;13.53;;
64688;SDS011;62504;46.070;14.492;2023-02-28T17:23:10;34.83;;;16.27;;